Time;durP1;ratioP1;P1;durP2;ratioP2;P2;SDS_P1;SDS_P2;PMS_P1;PMS_P2;Temp;Humidity;BMP_temperature;BMP_pressure;BME280_temperature;BME280_humidity;BME280_pressure;Samples;Min_cycle;Max_cycle;Signal;HPM_P1;HPM_P2
2023/08/16 00:00:08;;;;;;;0.50;0.50;;;;;;;;;;5013578;28;20220;-85
2023/08/16 00:02:37;;;;;;;0.40;0.40;;;;;;;;;;5013148;28;20227;-85
2023/08/16 00:05:07;;;;;;;0.43;0.43;;;;;;;;;;5013163;28;20238;-85
2023/08/16 00:07:35;;;;;;;0.97;0.97;;;;;;;;;;5013047;28;20210;-85
2023/08/16 00:10:04;;;;;;;0.30;0.30;;;;;;;;;;5013457;28;20219;-85
2023/08/16 00:12:34;;;;;;;2.50;2.40;;;;;;;;;;5013825;28;20206;-85
2023/08/16 00:15:02;;;;;;;0.40;0.40;;;;;;;;;;5013125;28;20200;-86
2023/08/16 00:17:31;;;;;;;0.30;0.30;;;;;;;;;;5013491;28;20227;-86
2023/08/16 00:19:59;;;;;;;0.83;0.83;;;;;;;;;;5013395;28;20191;-85
2023/08/16 00:22:28;;;;;;;0.40;0.40;;;;;;;;;;5013035;28;20231;-85
2023/08/16 00:24:56;;;;;;;0.40;0.40;;;;;;;;;;5012445;28;20206;-85
2023/08/16 00:27:25;;;;;;;3.10;1.50;;;;;;;;;;5013324;28;20254;-85
2023/08/16 00:29:55;;;;;;;1.10;1.10;;;;;;;;;;5013056;28;20192;-85
2023/08/16 00:32:23;;;;;;;0.80;0.80;;;;;;;;;;5012648;28;20202;-85
2023/08/16 00:34:52;;;;;;;0.63;0.63;;;;;;;;;;5013132;28;20211;-85
2023/08/16 00:37:20;;;;;;;0.53;0.53;;;;;;;;;;5013228;28;20207;-85
2023/08/16 00:39:49;;;;;;;0.60;0.60;;;;;;;;;;5013023;28;20231;-85
2023/08/16 00:42:19;;;;;;;0.73;0.70;;;;;;;;;;5012356;28;20195;-85
2023/08/16 00:44:47;;;;;;;0.60;0.60;;;;;;;;;;5012804;28;20210;-85
2023/08/16 00:47:18;;;;;;;0.60;0.60;;;;;;;;;;5012902;28;20278;-85
2023/08/16 00:49:46;;;;;;;0.70;0.70;;;;;;;;;;5012241;28;20227;-85
2023/08/16 00:52:17;;;;;;;0.47;0.47;;;;;;;;;;5012605;28;20221;-85
2023/08/16 00:54:46;;;;;;;0.63;0.63;;;;;;;;;;5012913;28;20212;-85
2023/08/16 00:57:14;;;;;;;0.83;0.83;;;;;;;;;;5013013;28;20201;-85
2023/08/16 00:59:43;;;;;;;0.60;0.60;;;;;;;;;;5012296;28;20215;-85
2023/08/16 01:02:12;;;;;;;0.57;0.57;;;;;;;;;;5012299;28;20295;-85
2023/08/16 01:04:42;;;;;;;0.50;0.50;;;;;;;;;;5012753;28;20221;-90
2023/08/16 01:07:11;;;;;;;1.27;1.23;;;;;;;;;;5012631;28;20554;-90
2023/08/16 01:09:40;;;;;;;0.60;0.60;;;;;;;;;;5012503;28;20227;-90
2023/08/16 01:12:13;;;;;;;0.70;0.70;;;;;;;;;;5012676;28;20223;-89
2023/08/16 01:14:46;;;;;;;1.33;1.33;;;;;;;;;;5012462;28;20197;-90
2023/08/16 01:17:16;;;;;;;0.80;0.80;;;;;;;;;;5012104;28;20244;-90
2023/08/16 01:19:46;;;;;;;0.50;0.50;;;;;;;;;;5012688;28;20207;-88
2023/08/16 01:22:18;;;;;;;0.40;0.40;;;;;;;;;;5012542;28;20208;-86
2023/08/16 01:24:49;;;;;;;1.07;1.00;;;;;;;;;;5011608;28;20212;-85
2023/08/16 01:27:21;;;;;;;0.40;0.40;;;;;;;;;;5012311;28;20208;-85
2023/08/16 01:29:52;;;;;;;0.40;0.40;;;;;;;;;;5012240;28;20255;-90
2023/08/16 01:32:22;;;;;;;0.40;0.40;;;;;;;;;;5012508;28;20198;-91
2023/08/16 01:34:51;;;;;;;0.40;0.40;;;;;;;;;;5011775;28;20196;-90
2023/08/16 01:37:19;;;;;;;0.40;0.40;;;;;;;;;;5012227;28;20228;-89
2023/08/16 01:39:50;;;;;;;0.40;0.40;;;;;;;;;;5012280;28;20196;-90
2023/08/16 01:42:20;;;;;;;0.40;0.40;;;;;;;;;;5012354;28;20221;-90
2023/08/16 01:44:50;;;;;;;0.40;0.40;;;;;;;;;;5011860;28;20211;-90
2023/08/16 01:47:19;;;;;;;0.40;0.40;;;;;;;;;;5012659;28;20242;-90
2023/08/16 01:49:48;;;;;;;0.40;0.40;;;;;;;;;;5012005;28;20203;-90
2023/08/16 01:52:17;;;;;;;0.50;0.50;;;;;;;;;;5012126;28;20233;-90
2023/08/16 01:54:46;;;;;;;0.40;0.40;;;;;;;;;;5015396;28;20205;-91
2023/08/16 01:57:14;;;;;;;0.87;0.87;;;;;;;;;;5019023;28;20262;-87
2023/08/16 01:59:44;;;;;;;1.80;1.70;;;;;;;;;;5018952;28;20207;-90
2023/08/16 02:02:13;;;;;;;0.63;0.63;;;;;;;;;;5018272;28;20238;-90
2023/08/16 02:04:41;;;;;;;0.40;0.40;;;;;;;;;;5018391;28;20223;-91
2023/08/16 02:07:10;;;;;;;0.40;0.40;;;;;;;;;;5018747;28;20319;-90
2023/08/16 02:09:38;;;;;;;2.13;2.03;;;;;;;;;;5018492;28;20210;-89
2023/08/16 02:12:07;;;;;;;0.50;0.50;;;;;;;;;;5018648;28;20199;-90
2023/08/16 02:14:36;;;;;;;0.60;0.60;;;;;;;;;;5018486;28;20201;-91
2023/08/16 02:17:06;;;;;;;0.73;0.73;;;;;;;;;;5018363;28;20191;-90
2023/08/16 02:19:34;;;;;;;1.00;1.00;;;;;;;;;;5018183;28;20211;-90
2023/08/16 02:22:03;;;;;;;0.87;0.87;;;;;;;;;;5018713;28;20195;-90
2023/08/16 02:24:32;;;;;;;0.60;0.60;;;;;;;;;;5018435;28;20343;-90
2023/08/16 02:27:00;;;;;;;1.20;1.20;;;;;;;;;;5018255;28;20207;-89
2023/08/16 02:29:30;;;;;;;1.60;1.50;;;;;;;;;;5018392;28;20211;-85
2023/08/16 02:31:58;;;;;;;0.60;0.60;;;;;;;;;;5018316;28;20207;-85
2023/08/16 02:34:28;;;;;;;1.00;1.00;;;;;;;;;;5017696;28;20211;-85
2023/08/16 02:36:57;;;;;;;0.50;0.50;;;;;;;;;;5017538;28;20199;-85
2023/08/16 02:39:25;;;;;;;0.40;0.40;;;;;;;;;;5018225;28;20208;-85
2023/08/16 02:41:55;;;;;;;3.40;3.20;;;;;;;;;;5018295;28;20311;-85
2023/08/16 02:44:24;;;;;;;0.50;0.50;;;;;;;;;;5017734;28;20327;-85
2023/08/16 02:46:52;;;;;;;1.17;1.17;;;;;;;;;;5017752;28;20207;-86
2023/08/16 02:49:21;;;;;;;3.73;3.53;;;;;;;;;;5017883;28;20246;-85
2023/08/16 02:51:51;;;;;;;0.70;0.70;;;;;;;;;;5017943;28;20219;-85
2023/08/16 02:54:19;;;;;;;0.40;0.40;;;;;;;;;;5017672;28;20196;-85
2023/08/16 02:56:47;;;;;;;0.40;0.40;;;;;;;;;;5018030;28;20266;-85
2023/08/16 02:59:16;;;;;;;0.40;0.40;;;;;;;;;;5017943;28;20292;-85
2023/08/16 03:01:45;;;;;;;0.67;0.67;;;;;;;;;;5017539;28;20232;-90
2023/08/16 03:04:13;;;;;;;0.60;0.60;;;;;;;;;;5017662;28;20242;-90
2023/08/16 03:06:42;;;;;;;0.40;0.40;;;;;;;;;;5014493;28;20202;-90
2023/08/16 03:09:12;;;;;;;0.40;0.40;;;;;;;;;;5015178;28;20253;-90
2023/08/16 03:11:40;;;;;;;1.00;1.00;;;;;;;;;;5014555;28;20195;-89
2023/08/16 03:14:09;;;;;;;1.80;1.70;;;;;;;;;;5014821;28;20200;-90
2023/08/16 03:16:37;;;;;;;1.77;1.67;;;;;;;;;;5014802;28;20200;-90
2023/08/16 03:19:06;;;;;;;2.97;2.77;;;;;;;;;;5014831;28;20226;-90
2023/08/16 03:21:34;;;;;;;2.50;2.30;;;;;;;;;;5014455;28;20203;-91
2023/08/16 03:24:03;;;;;;;1.63;1.53;;;;;;;;;;5014846;28;20220;-90
2023/08/16 03:26:33;;;;;;;2.17;1.97;;;;;;;;;;5014151;28;20199;-89
2023/08/16 03:29:01;;;;;;;0.40;0.40;;;;;;;;;;5014073;28;20254;-90
2023/08/16 03:31:30;;;;;;;0.40;0.40;;;;;;;;;;5013900;28;20215;-91
2023/08/16 03:33:58;;;;;;;0.40;0.40;;;;;;;;;;5014310;28;20210;-89
2023/08/16 03:36:27;;;;;;;0.40;0.40;;;;;;;;;;5013819;28;20206;-90
2023/08/16 03:38:55;;;;;;;0.40;0.40;;;;;;;;;;5013705;28;20200;-90
2023/08/16 03:41:24;;;;;;;0.40;0.40;;;;;;;;;;5014643;28;20215;-91
2023/08/16 03:43:54;;;;;;;0.40;0.40;;;;;;;;;;5014198;28;20211;-90
2023/08/16 03:46:22;;;;;;;1.70;1.13;;;;;;;;;;5013869;28;20203;-90
2023/08/16 03:48:51;;;;;;;0.40;0.40;;;;;;;;;;5013997;28;20341;-90
2023/08/16 03:51:20;;;;;;;0.40;0.40;;;;;;;;;;5014092;28;20358;-90
2023/08/16 03:53:48;;;;;;;0.40;0.40;;;;;;;;;;5014190;28;20242;-89
2023/08/16 03:56:17;;;;;;;0.87;0.87;;;;;;;;;;5013557;28;20278;-90
2023/08/16 03:58:45;;;;;;;0.40;0.40;;;;;;;;;;5013927;28;20218;-90
2023/08/16 04:01:15;;;;;;;0.40;0.40;;;;;;;;;;5014291;28;20218;-90
2023/08/16 04:03:44;;;;;;;0.40;0.40;;;;;;;;;;5013289;28;20245;-91
2023/08/16 04:06:12;;;;;;;1.60;1.47;;;;;;;;;;5013368;28;20215;-90
2023/08/16 04:08:41;;;;;;;3.53;2.17;;;;;;;;;;5014083;28;20535;-90
2023/08/16 04:11:09;;;;;;;0.40;0.40;;;;;;;;;;5014275;28;20214;-90
2023/08/16 04:13:38;;;;;;;0.40;0.40;;;;;;;;;;5013036;28;20211;-91
2023/08/16 04:16:06;;;;;;;0.40;0.40;;;;;;;;;;5013397;28;20195;-90
2023/08/16 04:18:37;;;;;;;0.40;0.40;;;;;;;;;;5013552;28;20295;-91
2023/08/16 04:21:05;;;;;;;0.40;0.40;;;;;;;;;;5013215;28;20264;-90
2023/08/16 04:23:33;;;;;;;0.40;0.40;;;;;;;;;;5013132;28;20204;-90
2023/08/16 04:26:02;;;;;;;0.40;0.40;;;;;;;;;;5014229;28;20228;-90
2023/08/16 04:28:31;;;;;;;0.70;0.70;;;;;;;;;;5013820;28;20199;-90
2023/08/16 04:31:00;;;;;;;1.67;1.57;;;;;;;;;;5013243;28;20195;-90
2023/08/16 04:33:29;;;;;;;0.73;0.67;;;;;;;;;;5012986;28;20204;-91
2023/08/16 04:35:59;;;;;;;0.40;0.40;;;;;;;;;;5013669;28;20215;-90
2023/08/16 04:38:27;;;;;;;0.40;0.40;;;;;;;;;;5013472;28;20208;-90
2023/08/16 04:40:56;;;;;;;0.50;0.50;;;;;;;;;;5013148;28;20203;-91
2023/08/16 04:43:25;;;;;;;0.90;0.90;;;;;;;;;;5013498;28;20242;-85
2023/08/16 04:45:53;;;;;;;0.47;0.47;;;;;;;;;;5012870;28;20231;-85
2023/08/16 04:48:22;;;;;;;2.23;1.83;;;;;;;;;;5012401;28;20214;-85
2023/08/16 04:50:51;;;;;;;0.63;0.63;;;;;;;;;;5012943;28;20247;-84
2023/08/16 04:53:21;;;;;;;0.40;0.40;;;;;;;;;;5012917;28;20214;-84
2023/08/16 04:55:49;;;;;;;0.40;0.40;;;;;;;;;;5012699;28;20205;-85
2023/08/16 04:58:18;;;;;;;1.07;1.07;;;;;;;;;;5012046;28;20203;-85
2023/08/16 05:00:46;;;;;;;1.07;1.07;;;;;;;;;;5012849;28;20208;-85
2023/08/16 05:03:15;;;;;;;0.40;0.40;;;;;;;;;;5012422;28;20231;-84
2023/08/16 05:05:43;;;;;;;0.40;0.40;;;;;;;;;;5012285;28;20228;-85
2023/08/16 05:08:12;;;;;;;0.40;0.40;;;;;;;;;;5012612;28;20201;-85
2023/08/16 05:10:41;;;;;;;2.40;2.30;;;;;;;;;;5012613;28;20196;-86
2023/08/16 05:13:10;;;;;;;0.40;0.40;;;;;;;;;;5012883;28;20203;-85
2023/08/16 05:15:38;;;;;;;1.90;1.80;;;;;;;;;;5011771;28;20200;-85
2023/08/16 05:18:07;;;;;;;0.40;0.40;;;;;;;;;;5012580;28;20214;-85
2023/08/16 05:20:36;;;;;;;0.60;0.60;;;;;;;;;;5012466;28;20195;-85
2023/08/16 05:23:05;;;;;;;0.50;0.50;;;;;;;;;;5012388;28;20277;-86
2023/08/16 05:25:33;;;;;;;0.40;0.40;;;;;;;;;;5011869;28;20233;-85
2023/08/16 05:28:03;;;;;;;0.40;0.40;;;;;;;;;;5012334;28;20221;-90
2023/08/16 05:30:34;;;;;;;0.37;0.37;;;;;;;;;;5012366;28;20199;-90
2023/08/16 05:33:03;;;;;;;3.00;1.63;;;;;;;;;;5012169;28;20257;-88
2023/08/16 05:35:34;;;;;;;2.13;0.87;;;;;;;;;;5012094;28;20199;-90
2023/08/16 05:38:04;;;;;;;0.70;0.70;;;;;;;;;;5012533;28;20204;-90
2023/08/16 05:40:33;;;;;;;0.40;0.40;;;;;;;;;;5012141;28;20212;-90
2023/08/16 05:43:01;;;;;;;0.57;0.57;;;;;;;;;;5012297;28;20511;-89
2023/08/16 05:45:31;;;;;;;1.00;1.00;;;;;;;;;;5013028;28;20331;-89
2023/08/16 05:47:59;;;;;;;0.40;0.40;;;;;;;;;;5013993;28;20251;-90
2023/08/16 05:50:28;;;;;;;0.40;0.40;;;;;;;;;;5012122;28;20197;-85
2023/08/16 05:52:56;;;;;;;0.77;0.77;;;;;;;;;;5011813;28;20258;-85
2023/08/16 05:55:25;;;;;;;0.40;0.40;;;;;;;;;;5012456;28;20206;-85
2023/08/16 05:57:54;;;;;;;0.87;0.87;;;;;;;;;;5011718;28;20204;-80
2023/08/16 06:00:22;;;;;;;0.40;0.40;;;;;;;;;;5012037;28;20204;-80
2023/08/16 06:02:53;;;;;;;0.40;0.40;;;;;;;;;;5011918;28;20263;-81
2023/08/16 06:05:22;;;;;;;0.53;0.53;;;;;;;;;;5013592;28;20212;-82
2023/08/16 06:07:50;;;;;;;1.23;1.23;;;;;;;;;;5005424;28;20208;-80
2023/08/16 06:10:19;;;;;;;0.40;0.40;;;;;;;;;;5006592;28;20217;-82
2023/08/16 06:12:48;;;;;;;0.30;0.30;;;;;;;;;;5008764;28;20216;-85
2023/08/16 06:15:17;;;;;;;0.40;0.40;;;;;;;;;;5009523;28;20207;-83
2023/08/16 06:17:45;;;;;;;0.57;0.57;;;;;;;;;;5010512;28;20200;-85
2023/08/16 06:20:15;;;;;;;0.43;0.43;;;;;;;;;;5011415;28;20222;-85
2023/08/16 06:22:46;;;;;;;0.33;0.33;;;;;;;;;;5012711;28;20262;-91
2023/08/16 06:25:15;;;;;;;1.17;1.10;;;;;;;;;;4999910;28;20214;-90
2023/08/16 06:27:44;;;;;;;1.00;1.00;;;;;;;;;;4994207;28;20200;-91
2023/08/16 06:30:15;;;;;;;1.90;1.80;;;;;;;;;;4993282;28;20194;-91
2023/08/16 06:32:46;;;;;;;1.10;1.10;;;;;;;;;;4992902;28;20277;-89
2023/08/16 06:35:16;;;;;;;2.13;1.17;;;;;;;;;;4991635;28;20252;-88
2023/08/16 06:37:48;;;;;;;2.57;2.27;;;;;;;;;;4992553;28;20300;-88
2023/08/16 06:40:17;;;;;;;2.10;1.50;;;;;;;;;;4992465;28;20294;-89
2023/08/16 06:42:45;;;;;;;1.60;1.50;;;;;;;;;;4995767;28;20236;-88
2023/08/16 06:45:14;;;;;;;1.33;1.20;;;;;;;;;;4994971;28;20197;-89
2023/08/16 06:47:43;;;;;;;1.03;0.77;;;;;;;;;;4996007;28;20257;-88
2023/08/16 06:50:13;;;;;;;1.43;1.33;;;;;;;;;;4995245;28;20261;-88
2023/08/16 06:52:44;;;;;;;1.73;1.60;;;;;;;;;;4995876;28;20218;-87
2023/08/16 06:55:12;;;;;;;0.90;0.90;;;;;;;;;;4996853;28;20200;-90
2023/08/16 06:57:42;;;;;;;0.37;0.37;;;;;;;;;;4996353;28;20196;-89
2023/08/16 07:00:11;;;;;;;1.67;1.67;;;;;;;;;;4995962;28;20214;-89
2023/08/16 07:02:40;;;;;;;3.13;2.83;;;;;;;;;;4995532;28;20241;-90
2023/08/16 07:05:11;;;;;;;0.30;0.30;;;;;;;;;;4995734;28;20204;-89
2023/08/16 07:07:39;;;;;;;0.47;0.47;;;;;;;;;;4996068;28;20222;-87
2023/08/16 07:10:10;;;;;;;4.17;2.97;;;;;;;;;;4995252;28;20221;-88
2023/08/16 07:12:39;;;;;;;1.47;1.37;;;;;;;;;;4995643;28;20305;-91
2023/08/16 07:15:07;;;;;;;4.57;2.83;;;;;;;;;;4994939;28;20236;-84
2023/08/16 07:17:36;;;;;;;0.87;0.87;;;;;;;;;;4995173;28;20204;-84
2023/08/16 07:20:07;;;;;;;0.50;0.50;;;;;;;;;;4994792;28;20225;-85
2023/08/16 07:22:37;;;;;;;0.50;0.50;;;;;;;;;;4994991;28;20207;-84
2023/08/16 07:25:06;;;;;;;1.30;1.27;;;;;;;;;;4994895;28;20209;-83
2023/08/16 07:27:36;;;;;;;0.90;0.90;;;;;;;;;;4994456;28;20242;-84
2023/08/16 07:30:05;;;;;;;4.90;3.60;;;;;;;;;;4994752;28;20199;-84
2023/08/16 07:32:36;;;;;;;1.10;1.10;;;;;;;;;;4994993;28;20249;-83
2023/08/16 07:35:05;;;;;;;2.20;1.53;;;;;;;;;;4994688;28;20257;-83
2023/08/16 07:37:34;;;;;;;4.10;2.67;;;;;;;;;;4994658;28;20226;-83
2023/08/16 07:40:03;;;;;;;3.53;2.70;;;;;;;;;;4995140;28;20230;-83
2023/08/16 07:42:31;;;;;;;1.63;1.43;;;;;;;;;;4994952;28;20204;-83
2023/08/16 07:45:02;;;;;;;3.83;1.43;;;;;;;;;;4994580;28;20205;-84
2023/08/16 07:47:31;;;;;;;2.40;2.07;;;;;;;;;;4994302;28;20219;-83
2023/08/16 07:50:01;;;;;;;0.70;0.70;;;;;;;;;;4994606;28;20220;-84
2023/08/16 07:52:29;;;;;;;1.10;1.03;;;;;;;;;;4994188;28;20226;-84
2023/08/16 07:54:58;;;;;;;0.50;0.50;;;;;;;;;;4994173;28;20218;-83
2023/08/16 07:57:27;;;;;;;0.87;0.87;;;;;;;;;;4994920;28;20197;-83
2023/08/16 07:59:56;;;;;;;2.73;1.43;;;;;;;;;;4994498;28;20269;-83
2023/08/16 08:02:26;;;;;;;2.90;1.53;;;;;;;;;;4994435;28;20239;-84
2023/08/16 08:05:05;;;;;;;1.00;1.00;;;;;;;;;;4994510;28;20208;-84
2023/08/16 08:07:34;;;;;;;1.83;1.37;;;;;;;;;;4994077;28;20218;-83
2023/08/16 08:10:02;;;;;;;1.70;1.40;;;;;;;;;;4994392;28;20260;-83
2023/08/16 08:12:31;;;;;;;1.17;1.07;;;;;;;;;;4994024;28;20215;-84
2023/08/16 08:14:59;;;;;;;1.67;1.00;;;;;;;;;;4994288;28;20210;-84
2023/08/16 08:17:29;;;;;;;0.93;0.67;;;;;;;;;;4994331;28;20272;-83
2023/08/16 08:19:58;;;;;;;2.20;1.00;;;;;;;;;;4994302;28;20202;-84
2023/08/16 08:22:26;;;;;;;0.77;0.77;;;;;;;;;;4994268;28;20261;-84
2023/08/16 08:24:58;;;;;;;3.20;1.13;;;;;;;;;;4994144;28;20203;-83
2023/08/16 08:27:27;;;;;;;1.77;1.33;;;;;;;;;;4993560;28;20225;-83
2023/08/16 08:29:56;;;;;;;0.43;0.43;;;;;;;;;;4993585;28;20203;-83
2023/08/16 08:32:24;;;;;;;7.10;2.40;;;;;;;;;;4993819;28;20198;-84
2023/08/16 08:34:55;;;;;;;3.63;2.23;;;;;;;;;;4993657;28;20263;-85
2023/08/16 08:37:24;;;;;;;2.37;2.17;;;;;;;;;;4993269;28;20231;-86
2023/08/16 08:39:53;;;;;;;2.80;2.00;;;;;;;;;;4993991;28;20203;-86
2023/08/16 08:42:22;;;;;;;3.47;1.10;;;;;;;;;;4993667;28;20204;-86
2023/08/16 08:44:51;;;;;;;1.13;0.87;;;;;;;;;;4993646;28;20241;-86
2023/08/16 08:47:20;;;;;;;2.90;2.70;;;;;;;;;;4993181;28;20234;-85
2023/08/16 08:50:03;;;;;;;1.30;1.10;;;;;;;;;;4993887;28;20198;-86
2023/08/16 08:52:34;;;;;;;1.60;1.40;;;;;;;;;;4993056;28;20234;-85
2023/08/16 08:55:04;;;;;;;3.70;2.50;;;;;;;;;;4993186;28;20227;-85
2023/08/16 08:57:33;;;;;;;0.97;0.97;;;;;;;;;;4993412;28;20208;-86
2023/08/16 09:00:02;;;;;;;1.20;1.20;;;;;;;;;;4994083;28;20273;-92
2023/08/16 09:02:33;;;;;;;1.73;1.17;;;;;;;;;;4995178;28;20266;-91
2023/08/16 09:05:04;;;;;;;2.07;1.87;;;;;;;;;;4992307;28;20215;-86
2023/08/16 09:07:34;;;;;;;2.13;1.63;;;;;;;;;;4993893;28;20326;-91
2023/08/16 09:10:06;;;;;;;0.30;0.30;;;;;;;;;;4995569;28;20202;-92
2023/08/16 09:12:35;;;;;;;8.40;1.47;;;;;;;;;;4995551;28;20203;-91
2023/08/16 09:15:04;;;;;;;1.50;1.27;;;;;;;;;;4994990;28;20291;-91
2023/08/16 09:17:33;;;;;;;1.33;1.23;;;;;;;;;;4995357;28;20196;-92
2023/08/16 09:20:05;;;;;;;1.03;0.97;;;;;;;;;;4995832;28;20212;-92
2023/08/16 09:22:35;;;;;;;2.77;1.70;;;;;;;;;;4994905;28;20195;-92
2023/08/16 09:25:04;;;;;;;2.20;1.93;;;;;;;;;;4995225;28;20208;-92
2023/08/16 09:27:33;;;;;;;2.47;2.00;;;;;;;;;;4994642;28;20233;-92
2023/08/16 09:30:02;;;;;;;0.97;0.93;;;;;;;;;;4995030;28;20226;-92
2023/08/16 09:32:31;;;;;;;0.47;0.47;;;;;;;;;;4994687;28;20211;-92
2023/08/16 09:35:02;;;;;;;6.73;1.50;;;;;;;;;;4994974;28;20215;-91
2023/08/16 09:37:32;;;;;;;3.60;1.33;;;;;;;;;;4994938;28;20281;-92
2023/08/16 09:40:04;;;;;;;1.30;1.23;;;;;;;;;;4994633;28;20219;-92
2023/08/16 09:42:33;;;;;;;0.50;0.50;;;;;;;;;;4994779;28;20218;-91
2023/08/16 09:45:02;;;;;;;0.60;0.60;;;;;;;;;;4994992;28;20295;-93
2023/08/16 09:47:31;;;;;;;0.57;0.57;;;;;;;;;;4994330;28;20233;-92
2023/08/16 09:50:05;;;;;;;0.70;0.70;;;;;;;;;;4993922;28;20201;-92
2023/08/16 09:52:37;;;;;;;0.80;0.80;;;;;;;;;;4993949;28;20229;-92
2023/08/16 09:55:09;;;;;;;1.93;1.47;;;;;;;;;;4993995;28;20259;-93
2023/08/16 09:57:41;;;;;;;0.87;0.87;;;;;;;;;;4993947;28;20199;-91
2023/08/16 10:00:10;;;;;;;1.00;0.93;;;;;;;;;;4994173;28;20210;-92
2023/08/16 10:02:39;;;;;;;1.00;0.97;;;;;;;;;;4993706;28;20244;-92
2023/08/16 10:05:11;;;;;;;0.97;0.97;;;;;;;;;;4994366;28;20205;-91
2023/08/16 10:07:59;;;;;;;0.90;0.90;;;;;;;;;;4993961;28;20212;-92
2023/08/16 10:10:32;;;;;;;0.53;0.53;;;;;;;;;;4994655;28;20215;-91
2023/08/16 10:13:01;;;;;;;2.67;1.20;;;;;;;;;;4994817;28;20211;-92
2023/08/16 10:15:32;;;;;;;2.03;1.27;;;;;;;;;;4996142;28;20208;-91
2023/08/16 10:18:02;;;;;;;0.90;0.90;;;;;;;;;;5000854;28;20228;-90
2023/08/16 10:20:33;;;;;;;1.03;0.90;;;;;;;;;;5001671;28;20202;-91
2023/08/16 10:23:02;;;;;;;2.67;1.47;;;;;;;;;;5002179;28;20214;-91
2023/08/16 10:25:37;;;;;;;1.47;1.10;;;;;;;;;;5000690;28;20248;-92
2023/08/16 10:28:08;;;;;;;2.87;1.50;;;;;;;;;;5001590;28;20221;-92
2023/08/16 10:30:37;;;;;;;2.00;1.07;;;;;;;;;;5000459;28;20210;-90
2023/08/16 10:33:10;;;;;;;2.50;1.43;;;;;;;;;;4998847;28;20209;-90
2023/08/16 10:35:40;;;;;;;0.90;0.90;;;;;;;;;;5000011;28;20206;-91
2023/08/16 10:38:08;;;;;;;1.60;1.07;;;;;;;;;;4999734;28;20237;-90
2023/08/16 10:40:39;;;;;;;2.90;1.43;;;;;;;;;;4999346;28;20203;-91
2023/08/16 10:43:08;;;;;;;1.00;1.00;;;;;;;;;;4998798;28;20216;-91
2023/08/16 10:45:38;;;;;;;0.50;0.50;;;;;;;;;;4998183;28;20208;-92
2023/08/16 10:48:10;;;;;;;0.90;0.90;;;;;;;;;;4997884;28;20222;-92
2023/08/16 10:50:40;;;;;;;1.80;1.53;;;;;;;;;;4997687;28;20207;-93
2023/08/16 10:53:09;;;;;;;1.50;1.07;;;;;;;;;;4997719;28;20254;-91
2023/08/16 10:55:41;;;;;;;1.77;1.67;;;;;;;;;;4998034;28;20197;-92
2023/08/16 10:58:19;;;;;;;1.10;0.90;;;;;;;;;;4997921;28;20239;-91
2023/08/16 11:00:56;;;;;;;2.13;1.63;;;;;;;;;;4997460;28;20206;-92
2023/08/16 11:03:31;;;;;;;2.90;1.07;;;;;;;;;;4996904;28;20248;-91
2023/08/16 11:06:00;;;;;;;0.50;0.50;;;;;;;;;;4996946;28;20190;-91
2023/08/16 11:08:31;;;;;;;2.83;1.47;;;;;;;;;;4996982;28;20342;-90
2023/08/16 11:11:02;;;;;;;1.53;1.10;;;;;;;;;;4996819;28;20198;-92
2023/08/16 11:13:31;;;;;;;0.93;0.93;;;;;;;;;;4997291;28;20215;-91
2023/08/16 11:16:00;;;;;;;1.20;1.07;;;;;;;;;;4996573;28;20195;-91
2023/08/16 11:18:30;;;;;;;1.17;1.07;;;;;;;;;;4996663;28;20205;-92
2023/08/16 11:21:03;;;;;;;1.40;1.30;;;;;;;;;;4996952;28;20215;-92
2023/08/16 11:23:32;;;;;;;3.80;2.07;;;;;;;;;;4997165;28;20202;-92
2023/08/16 11:26:04;;;;;;;1.50;1.40;;;;;;;;;;4996732;28;20206;-92
2023/08/16 11:28:34;;;;;;;0.93;0.93;;;;;;;;;;4994102;28;20229;-86
2023/08/16 11:31:04;;;;;;;2.10;0.93;;;;;;;;;;4995327;28;20201;-87
2023/08/16 11:33:33;;;;;;;0.90;0.90;;;;;;;;;;4995499;28;20193;-86
2023/08/16 11:36:04;;;;;;;0.77;0.77;;;;;;;;;;4994956;28;20297;-86
2023/08/16 11:38:34;;;;;;;2.97;1.30;;;;;;;;;;4994806;28;20191;-86
2023/08/16 11:41:04;;;;;;;0.53;0.53;;;;;;;;;;4995046;28;20218;-86
2023/08/16 11:43:33;;;;;;;1.30;1.20;;;;;;;;;;4994770;28;20295;-86
2023/08/16 11:46:04;;;;;;;2.53;1.07;;;;;;;;;;4994648;28;20208;-86
2023/08/16 11:48:35;;;;;;;3.23;1.00;;;;;;;;;;4994768;28;20250;-86
2023/08/16 11:51:04;;;;;;;1.07;0.97;;;;;;;;;;4994661;28;20233;-86
2023/08/16 11:53:33;;;;;;;3.20;1.80;;;;;;;;;;4993961;28;20295;-86
2023/08/16 11:56:04;;;;;;;6.87;1.50;;;;;;;;;;4996084;28;20211;-92
2023/08/16 11:58:43;;;;;;;2.33;1.27;;;;;;;;;;4995726;28;20280;-91
2023/08/16 12:01:14;;;;;;;0.57;0.57;;;;;;;;;;4996030;28;20208;-92
2023/08/16 12:03:44;;;;;;;0.77;0.77;;;;;;;;;;4997807;28;20289;-91
2023/08/16 12:06:16;;;;;;;0.60;0.40;;;;;;;;;;4995151;28;20297;-92
2023/08/16 12:08:51;;;;;;;3.37;1.47;;;;;;;;;;5001538;28;20231;-92
2023/08/16 12:11:35;;;;;;;4.50;1.33;;;;;;;;;;4998367;28;20239;-92
2023/08/16 12:14:05;;;;;;;1.40;1.30;;;;;;;;;;4996173;28;20207;-92
2023/08/16 12:16:35;;;;;;;3.07;1.47;;;;;;;;;;4994743;28;20203;-92
2023/08/16 12:19:04;;;;;;;0.90;0.90;;;;;;;;;;4994792;28;20286;-91
2023/08/16 12:21:33;;;;;;;2.13;1.20;;;;;;;;;;4995316;28;20260;-92
2023/08/16 12:24:01;;;;;;;1.27;1.03;;;;;;;;;;4996381;28;20208;-92
2023/08/16 12:26:30;;;;;;;2.83;1.47;;;;;;;;;;4995202;28;20210;-91
2023/08/16 12:29:00;;;;;;;1.20;1.10;;;;;;;;;;4995629;28;20247;-92
2023/08/16 12:31:28;;;;;;;0.83;0.83;;;;;;;;;;4996301;28;20238;-92
2023/08/16 12:34:00;;;;;;;1.30;1.20;;;;;;;;;;5000326;28;20203;-92
2023/08/16 12:36:32;;;;;;;0.90;0.90;;;;;;;;;;5008076;28;20246;-90
2023/08/16 12:39:06;;;;;;;0.77;0.77;;;;;;;;;;5007033;28;20206;-94
2023/08/16 12:41:43;;;;;;;0.97;0.97;;;;;;;;;;5008572;28;20222;-91
2023/08/16 12:44:22;;;;;;;1.87;1.10;;;;;;;;;;5010324;28;20272;-91
2023/08/16 12:46:58;;;;;;;1.47;1.17;;;;;;;;;;5008123;28;20204;-93
2023/08/16 12:49:29;;;;;;;2.50;0.93;;;;;;;;;;5008717;28;20401;-93
2023/08/16 12:51:59;;;;;;;1.10;1.00;;;;;;;;;;4990714;28;20212;-93
2023/08/16 12:58:31;;;;;;;1.63;0.97;;;;;;;;;;4950590;29;20197;-91
2023/08/16 13:01:20;;;;;;;1.50;1.40;;;;;;;;;;4951291;29;20230;-92
2023/08/16 13:04:25;;;;;;;3.33;1.33;;;;;;;;;;5011277;28;20230;-91
2023/08/16 13:07:05;;;;;;;0.90;0.90;;;;;;;;;;5011527;28;20195;-92
2023/08/16 13:09:47;;;;;;;0.73;0.73;;;;;;;;;;5010748;28;20223;-93
2023/08/16 13:12:28;;;;;;;3.20;1.50;;;;;;;;;;5009712;28;20276;-93
2023/08/16 13:15:02;;;;;;;0.97;0.97;;;;;;;;;;5005994;28;20204;-94
2023/08/16 13:17:37;;;;;;;1.67;1.37;;;;;;;;;;4996824;28;20296;-94
2023/08/16 13:20:14;;;;;;;0.80;0.73;;;;;;;;;;4995799;28;20230;-94
2023/08/16 13:22:48;;;;;;;1.37;1.10;;;;;;;;;;4996032;28;20234;-93
2023/08/16 13:25:18;;;;;;;1.40;1.30;;;;;;;;;;4996526;28;20207;-94
2023/08/16 13:28:08;;;;;;;0.80;0.80;;;;;;;;;;4995501;28;20208;-94
2023/08/16 13:30:49;;;;;;;0.90;0.90;;;;;;;;;;4996342;28;20235;-92
2023/08/16 13:33:35;;;;;;;1.10;1.03;;;;;;;;;;4996330;28;20208;-94
2023/08/16 13:36:17;;;;;;;1.90;1.83;;;;;;;;;;4995823;28;20220;-94
2023/08/16 13:38:51;;;;;;;3.27;0.60;;;;;;;;;;4995848;28;20207;-94
2023/08/16 13:41:36;;;;;;;0.80;0.63;;;;;;;;;;4996984;28;20207;-93
2023/08/16 13:44:09;;;;;;;4.30;1.20;;;;;;;;;;4995189;28;20212;-89
2023/08/16 13:46:40;;;;;;;1.07;1.00;;;;;;;;;;4994171;28;20199;-93
2023/08/16 13:49:11;;;;;;;1.10;1.00;;;;;;;;;;4993466;28;20208;-92
2023/08/16 13:51:39;;;;;;;2.27;1.50;;;;;;;;;;4993349;28;20220;-92
2023/08/16 13:54:08;;;;;;;2.00;1.30;;;;;;;;;;4994337;28;20254;-93
2023/08/16 13:56:37;;;;;;;1.60;1.30;;;;;;;;;;4993504;28;20249;-93
2023/08/16 13:59:18;;;;;;;1.67;1.03;;;;;;;;;;4993754;28;20269;-94
2023/08/16 14:01:46;;;;;;;1.50;1.40;;;;;;;;;;4993851;28;20192;-93
2023/08/16 14:04:18;;;;;;;1.03;1.03;;;;;;;;;;4993682;28;20258;-94
2023/08/16 14:06:47;;;;;;;1.17;1.07;;;;;;;;;;4993744;28;20223;-93
2023/08/16 14:09:16;;;;;;;1.83;1.73;;;;;;;;;;4994791;28;20197;-92
2023/08/16 14:11:48;;;;;;;2.30;1.43;;;;;;;;;;4993601;28;20231;-93
2023/08/16 14:14:19;;;;;;;0.77;0.77;;;;;;;;;;4996873;28;20206;-94
2023/08/16 14:16:51;;;;;;;0.60;0.60;;;;;;;;;;4997745;28;20245;-93
2023/08/16 14:19:23;;;;;;;1.00;1.00;;;;;;;;;;4994436;28;20295;-93
2023/08/16 14:21:51;;;;;;;2.20;1.53;;;;;;;;;;4995925;28;20245;-93
2023/08/16 14:24:25;;;;;;;1.40;1.30;;;;;;;;;;4997169;28;20208;-92
2023/08/16 14:26:54;;;;;;;1.57;1.13;;;;;;;;;;4998935;28;20329;-92
2023/08/16 14:29:22;;;;;;;1.03;1.03;;;;;;;;;;4996543;28;20240;-93
2023/08/16 14:31:51;;;;;;;1.57;0.90;;;;;;;;;;4995682;28;20218;-93
2023/08/16 14:34:20;;;;;;;0.80;0.80;;;;;;;;;;4997144;28;20192;-92
2023/08/16 14:36:50;;;;;;;0.70;0.70;;;;;;;;;;4995990;28;20231;-94
2023/08/16 14:39:21;;;;;;;1.03;0.90;;;;;;;;;;4995946;28;20213;-95
2023/08/16 14:41:49;;;;;;;0.40;0.40;;;;;;;;;;4996507;28;20284;-95
2023/08/16 14:44:18;;;;;;;1.17;1.07;;;;;;;;;;4994144;28;20211;-92
2023/08/16 14:46:47;;;;;;;0.70;0.70;;;;;;;;;;4992992;28;20200;-93
2023/08/16 14:49:19;;;;;;;0.97;0.73;;;;;;;;;;4992326;28;20359;-92
2023/08/16 14:51:50;;;;;;;3.00;2.27;;;;;;;;;;4992491;28;20243;-90
2023/08/16 14:54:18;;;;;;;2.93;1.83;;;;;;;;;;4991530;28;20204;-90
2023/08/16 14:56:47;;;;;;;1.53;1.40;;;;;;;;;;4991975;28;20200;-90
2023/08/16 14:59:16;;;;;;;0.90;0.90;;;;;;;;;;4993428;28;20298;-93
2023/08/16 15:01:45;;;;;;;1.83;1.73;;;;;;;;;;4995139;28;20201;-91
2023/08/16 15:04:15;;;;;;;0.90;0.90;;;;;;;;;;4996249;28;20241;-93